sensor_id;sensor_type;location;lat;lon;timestamp;temperature;humidity
25582;DHT22;13462;50.764;4.332;2023-12-29T00:01:54;10.60;99.90
25582;DHT22;13462;50.764;4.332;2023-12-29T00:04:20;10.60;99.90
25582;DHT22;13462;50.764;4.332;2023-12-29T00:06:45;10.60;99.90
25582;DHT22;13462;50.764;4.332;2023-12-29T00:09:11;10.60;99.90
25582;DHT22;13462;50.764;4.332;2023-12-29T00:11:38;10.60;99.90
25582;DHT22;13462;50.764;4.332;2023-12-29T00:14:04;10.60;99.90
25582;DHT22;13462;50.764;4.332;2023-12-29T00:16:31;10.60;99.90
25582;DHT22;13462;50.764;4.332;2023-12-29T00:18:56;10.60;99.90
25582;DHT22;13462;50.764;4.332;2023-12-29T00:21:22;10.60;99.90
25582;DHT22;13462;50.764;4.332;2023-12-29T00:23:47;10.60;99.90
25582;DHT22;13462;50.764;4.332;2023-12-29T00:26:16;10.50;99.90
25582;DHT22;13462;50.764;4.332;2023-12-29T00:28:43;10.60;99.90
25582;DHT22;13462;50.764;4.332;2023-12-29T00:31:13;10.60;99.90
25582;DHT22;13462;50.764;4.332;2023-12-29T00:33:40;10.60;99.90
25582;DHT22;13462;50.764;4.332;2023-12-29T00:36:05;10.60;99.90
25582;DHT22;13462;50.764;4.332;2023-12-29T00:38:31;10.60;99.90
25582;DHT22;13462;50.764;4.332;2023-12-29T00:40:57;10.60;99.90
25582;DHT22;13462;50.764;4.332;2023-12-29T00:43:22;10.60;99.90
25582;DHT22;13462;50.764;4.332;2023-12-29T00:45:48;10.60;99.90
25582;DHT22;13462;50.764;4.332;2023-12-29T00:48:14;10.60;99.90
25582;DHT22;13462;50.764;4.332;2023-12-29T00:50:39;10.60;99.90
25582;DHT22;13462;50.764;4.332;2023-12-29T00:53:05;10.70;99.90
25582;DHT22;13462;50.764;4.332;2023-12-29T00:55:30;10.60;99.90
25582;DHT22;13462;50.764;4.332;2023-12-29T00:57:56;10.70;99.90
25582;DHT22;13462;50.764;4.332;2023-12-29T01:00:22;10.70;99.90
25582;DHT22;13462;50.764;4.332;2023-12-29T01:02:47;10.70;99.90
25582;DHT22;13462;50.764;4.332;2023-12-29T01:05:17;10.70;99.90
25582;DHT22;13462;50.764;4.332;2023-12-29T01:07:42;10.70;99.90
25582;DHT22;13462;50.764;4.332;2023-12-29T01:10:09;10.70;99.90
25582;DHT22;13462;50.764;4.332;2023-12-29T01:12:34;10.70;99.90
25582;DHT22;13462;50.764;4.332;2023-12-29T01:15:00;10.70;99.90
25582;DHT22;13462;50.764;4.332;2023-12-29T01:17:25;10.80;99.90
25582;DHT22;13462;50.764;4.332;2023-12-29T01:19:53;10.70;99.90
25582;DHT22;13462;50.764;4.332;2023-12-29T01:22:19;10.80;99.90
25582;DHT22;13462;50.764;4.332;2023-12-29T01:24:45;10.70;99.90
25582;DHT22;13462;50.764;4.332;2023-12-29T01:27:10;10.70;99.90
25582;DHT22;13462;50.764;4.332;2023-12-29T01:29:36;10.80;99.90
25582;DHT22;13462;50.764;4.332;2023-12-29T01:32:02;10.80;99.90
25582;DHT22;13462;50.764;4.332;2023-12-29T01:34:29;10.80;99.90
25582;DHT22;13462;50.764;4.332;2023-12-29T01:36:58;10.80;99.90
25582;DHT22;13462;50.764;4.332;2023-12-29T01:39:24;10.80;99.90
25582;DHT22;13462;50.764;4.332;2023-12-29T01:41:50;10.80;99.90
25582;DHT22;13462;50.764;4.332;2023-12-29T01:44:22;10.80;99.90
25582;DHT22;13462;50.764;4.332;2023-12-29T01:46:54;10.80;99.90
25582;DHT22;13462;50.764;4.332;2023-12-29T01:49:21;10.70;99.90
25582;DHT22;13462;50.764;4.332;2023-12-29T01:51:55;10.80;99.90
25582;DHT22;13462;50.764;4.332;2023-12-29T01:54:22;10.70;99.90
25582;DHT22;13462;50.764;4.332;2023-12-29T01:56:50;10.80;99.90
25582;DHT22;13462;50.764;4.332;2023-12-29T01:59:16;10.80;99.90
25582;DHT22;13462;50.764;4.332;2023-12-29T02:01:42;10.80;99.90
25582;DHT22;13462;50.764;4.332;2023-12-29T02:04:10;10.80;99.90
25582;DHT22;13462;50.764;4.332;2023-12-29T02:06:37;10.80;99.90
25582;DHT22;13462;50.764;4.332;2023-12-29T02:09:04;10.80;99.90
25582;DHT22;13462;50.764;4.332;2023-12-29T02:11:31;10.70;99.90
25582;DHT22;13462;50.764;4.332;2023-12-29T02:13:58;10.80;99.90
25582;DHT22;13462;50.764;4.332;2023-12-29T02:16:33;10.80;99.90
25582;DHT22;13462;50.764;4.332;2023-12-29T02:19:02;10.80;99.90
25582;DHT22;13462;50.764;4.332;2023-12-29T02:21:29;10.80;99.90
25582;DHT22;13462;50.764;4.332;2023-12-29T02:23:55;10.80;99.90
25582;DHT22;13462;50.764;4.332;2023-12-29T02:26:22;10.80;99.90
25582;DHT22;13462;50.764;4.332;2023-12-29T02:28:56;10.80;99.90
25582;DHT22;13462;50.764;4.332;2023-12-29T02:31:25;10.80;99.90
25582;DHT22;13462;50.764;4.332;2023-12-29T02:33:52;10.80;99.90
25582;DHT22;13462;50.764;4.332;2023-12-29T02:36:19;10.80;99.90
25582;DHT22;13462;50.764;4.332;2023-12-29T02:38:46;10.80;99.90
25582;DHT22;13462;50.764;4.332;2023-12-29T02:41:12;10.80;99.90
25582;DHT22;13462;50.764;4.332;2023-12-29T02:43:40;10.70;99.90
25582;DHT22;13462;50.764;4.332;2023-12-29T02:46:06;10.70;99.90
25582;DHT22;13462;50.764;4.332;2023-12-29T02:48:31;10.70;99.90
25582;DHT22;13462;50.764;4.332;2023-12-29T02:50:57;10.70;99.90
25582;DHT22;13462;50.764;4.332;2023-12-29T02:53:22;10.60;99.90
25582;DHT22;13462;50.764;4.332;2023-12-29T02:55:48;10.60;99.90
25582;DHT22;13462;50.764;4.332;2023-12-29T02:58:14;10.60;99.90
25582;DHT22;13462;50.764;4.332;2023-12-29T03:00:39;10.60;99.90
25582;DHT22;13462;50.764;4.332;2023-12-29T03:03:05;10.60;99.90
25582;DHT22;13462;50.764;4.332;2023-12-29T03:05:30;10.60;99.90
25582;DHT22;13462;50.764;4.332;2023-12-29T03:07:56;10.60;99.90
25582;DHT22;13462;50.764;4.332;2023-12-29T03:10:23;10.60;99.90
25582;DHT22;13462;50.764;4.332;2023-12-29T03:12:49;10.50;99.90
25582;DHT22;13462;50.764;4.332;2023-12-29T03:15:15;10.50;99.90
25582;DHT22;13462;50.764;4.332;2023-12-29T03:17:40;10.50;99.90
25582;DHT22;13462;50.764;4.332;2023-12-29T03:20:06;10.50;99.90
25582;DHT22;13462;50.764;4.332;2023-12-29T03:22:33;10.50;99.90
25582;DHT22;13462;50.764;4.332;2023-12-29T03:24:58;10.50;99.90
25582;DHT22;13462;50.764;4.332;2023-12-29T03:27:24;10.50;99.90
25582;DHT22;13462;50.764;4.332;2023-12-29T03:29:50;10.50;99.90
25582;DHT22;13462;50.764;4.332;2023-12-29T03:32:15;10.40;99.90
25582;DHT22;13462;50.764;4.332;2023-12-29T03:34:41;10.40;99.90
25582;DHT22;13462;50.764;4.332;2023-12-29T03:37:06;10.40;99.90
25582;DHT22;13462;50.764;4.332;2023-12-29T03:39:32;10.30;99.90
25582;DHT22;13462;50.764;4.332;2023-12-29T03:42:01;10.30;99.90
25582;DHT22;13462;50.764;4.332;2023-12-29T03:44:26;10.30;99.90
25582;DHT22;13462;50.764;4.332;2023-12-29T03:46:52;10.30;99.90
25582;DHT22;13462;50.764;4.332;2023-12-29T03:49:18;10.30;99.90
25582;DHT22;13462;50.764;4.332;2023-12-29T03:51:45;10.30;99.90
25582;DHT22;13462;50.764;4.332;2023-12-29T03:54:11;10.30;99.90
25582;DHT22;13462;50.764;4.332;2023-12-29T03:56:37;10.30;99.90
25582;DHT22;13462;50.764;4.332;2023-12-29T03:59:03;10.20;99.90
25582;DHT22;13462;50.764;4.332;2023-12-29T04:01:28;10.20;99.90
25582;DHT22;13462;50.764;4.332;2023-12-29T04:03:54;10.10;99.90
25582;DHT22;13462;50.764;4.332;2023-12-29T04:06:20;10.10;99.90
25582;DHT22;13462;50.764;4.332;2023-12-29T04:08:45;10.00;99.90
25582;DHT22;13462;50.764;4.332;2023-12-29T04:11:11;10.00;99.90
25582;DHT22;13462;50.764;4.332;2023-12-29T04:13:37;10.00;99.90
25582;DHT22;13462;50.764;4.332;2023-12-29T04:16:03;10.00;99.90
25582;DHT22;13462;50.764;4.332;2023-12-29T04:18:29;10.00;99.90
25582;DHT22;13462;50.764;4.332;2023-12-29T04:20:54;10.00;99.90
25582;DHT22;13462;50.764;4.332;2023-12-29T04:23:20;10.00;99.90
25582;DHT22;13462;50.764;4.332;2023-12-29T04:25:46;10.00;99.90
25582;DHT22;13462;50.764;4.332;2023-12-29T04:28:11;10.00;99.90
25582;DHT22;13462;50.764;4.332;2023-12-29T04:30:37;10.00;99.90
25582;DHT22;13462;50.764;4.332;2023-12-29T04:33:03;10.00;99.90
25582;DHT22;13462;50.764;4.332;2023-12-29T04:35:28;10.00;99.90
25582;DHT22;13462;50.764;4.332;2023-12-29T04:37:54;10.00;99.90
25582;DHT22;13462;50.764;4.332;2023-12-29T04:40:20;10.00;99.90
25582;DHT22;13462;50.764;4.332;2023-12-29T04:42:45;10.00;99.90
25582;DHT22;13462;50.764;4.332;2023-12-29T04:45:12;10.00;99.90
25582;DHT22;13462;50.764;4.332;2023-12-29T04:47:38;10.00;99.90
25582;DHT22;13462;50.764;4.332;2023-12-29T04:50:04;9.90;99.90
25582;DHT22;13462;50.764;4.332;2023-12-29T04:52:31;10.00;99.90
25582;DHT22;13462;50.764;4.332;2023-12-29T04:54:56;10.00;99.90
25582;DHT22;13462;50.764;4.332;2023-12-29T04:57:22;10.10;99.90
25582;DHT22;13462;50.764;4.332;2023-12-29T04:59:48;10.10;99.90
25582;DHT22;13462;50.764;4.332;2023-12-29T05:02:13;10.10;99.90
25582;DHT22;13462;50.764;4.332;2023-12-29T05:04:39;10.10;99.90
25582;DHT22;13462;50.764;4.332;2023-12-29T05:07:08;10.10;99.90
25582;DHT22;13462;50.764;4.332;2023-12-29T05:09:34;10.10;99.90
25582;DHT22;13462;50.764;4.332;2023-12-29T05:12:00;10.20;99.90
25582;DHT22;13462;50.764;4.332;2023-12-29T05:14:25;10.20;99.90
25582;DHT22;13462;50.764;4.332;2023-12-29T05:16:51;10.20;99.90
25582;DHT22;13462;50.764;4.332;2023-12-29T05:19:17;10.20;99.90
25582;DHT22;13462;50.764;4.332;2023-12-29T05:21:42;10.20;99.90
25582;DHT22;13462;50.764;4.332;2023-12-29T05:24:08;10.20;99.90
25582;DHT22;13462;50.764;4.332;2023-12-29T05:26:34;10.20;99.90
25582;DHT22;13462;50.764;4.332;2023-12-29T05:28:59;10.20;99.90
25582;DHT22;13462;50.764;4.332;2023-12-29T05:31:25;10.30;99.90
25582;DHT22;13462;50.764;4.332;2023-12-29T05:33:51;10.20;99.90
25582;DHT22;13462;50.764;4.332;2023-12-29T05:36:16;10.30;99.90
25582;DHT22;13462;50.764;4.332;2023-12-29T05:38:45;10.20;99.90
25582;DHT22;13462;50.764;4.332;2023-12-29T05:41:13;10.20;99.90
25582;DHT22;13462;50.764;4.332;2023-12-29T05:43:39;10.20;99.90
25582;DHT22;13462;50.764;4.332;2023-12-29T05:46:09;10.30;99.90
25582;DHT22;13462;50.764;4.332;2023-12-29T05:48:37;10.30;99.90
25582;DHT22;13462;50.764;4.332;2023-12-29T05:51:10;10.30;99.90
25582;DHT22;13462;50.764;4.332;2023-12-29T05:53:36;10.30;99.90
25582;DHT22;13462;50.764;4.332;2023-12-29T05:56:02;10.30;99.90
25582;DHT22;13462;50.764;4.332;2023-12-29T05:58:27;10.30;99.90
25582;DHT22;13462;50.764;4.332;2023-12-29T06:00:54;10.30;99.90
25582;DHT22;13462;50.764;4.332;2023-12-29T06:03:20;10.20;99.90
25582;DHT22;13462;50.764;4.332;2023-12-29T06:05:46;10.10;99.90
25582;DHT22;13462;50.764;4.332;2023-12-29T06:08:12;10.00;99.90
25582;DHT22;13462;50.764;4.332;2023-12-29T06:10:37;9.90;99.90
25582;DHT22;13462;50.764;4.332;2023-12-29T06:13:03;9.80;99.90
25582;DHT22;13462;50.764;4.332;2023-12-29T06:15:29;9.70;99.90
25582;DHT22;13462;50.764;4.332;2023-12-29T06:17:54;9.70;99.90
25582;DHT22;13462;50.764;4.332;2023-12-29T06:20:20;9.60;99.90
25582;DHT22;13462;50.764;4.332;2023-12-29T06:22:46;9.40;99.90
25582;DHT22;13462;50.764;4.332;2023-12-29T06:25:12;9.40;99.90
25582;DHT22;13462;50.764;4.332;2023-12-29T06:27:39;9.50;99.90
25582;DHT22;13462;50.764;4.332;2023-12-29T06:30:06;9.40;99.90
25582;DHT22;13462;50.764;4.332;2023-12-29T06:32:32;9.40;99.90
25582;DHT22;13462;50.764;4.332;2023-12-29T06:34:58;9.40;99.90
25582;DHT22;13462;50.764;4.332;2023-12-29T06:37:24;9.40;99.90
25582;DHT22;13462;50.764;4.332;2023-12-29T06:39:49;9.40;99.90
25582;DHT22;13462;50.764;4.332;2023-12-29T06:42:15;9.50;99.90
25582;DHT22;13462;50.764;4.332;2023-12-29T06:44:40;9.40;99.90
25582;DHT22;13462;50.764;4.332;2023-12-29T06:47:06;9.40;99.90
25582;DHT22;13462;50.764;4.332;2023-12-29T06:49:34;9.40;99.90
25582;DHT22;13462;50.764;4.332;2023-12-29T06:51:59;9.40;99.90
25582;DHT22;13462;50.764;4.332;2023-12-29T06:54:25;9.40;99.90
25582;DHT22;13462;50.764;4.332;2023-12-29T06:56:51;9.40;99.90
25582;DHT22;13462;50.764;4.332;2023-12-29T06:59:16;9.40;99.90
25582;DHT22;13462;50.764;4.332;2023-12-29T07:01:44;9.30;99.90
25582;DHT22;13462;50.764;4.332;2023-12-29T07:04:09;9.40;99.90
25582;DHT22;13462;50.764;4.332;2023-12-29T07:06:36;9.30;99.90
25582;DHT22;13462;50.764;4.332;2023-12-29T07:09:02;9.40;99.90
25582;DHT22;13462;50.764;4.332;2023-12-29T07:11:28;9.40;99.90
25582;DHT22;13462;50.764;4.332;2023-12-29T07:13:54;9.40;99.90
25582;DHT22;13462;50.764;4.332;2023-12-29T07:16:20;9.50;99.90
25582;DHT22;13462;50.764;4.332;2023-12-29T07:18:46;9.50;99.90
25582;DHT22;13462;50.764;4.332;2023-12-29T07:21:12;9.50;99.90
25582;DHT22;13462;50.764;4.332;2023-12-29T07:23:38;9.50;99.90
25582;DHT22;13462;50.764;4.332;2023-12-29T07:26:04;9.50;99.90
25582;DHT22;13462;50.764;4.332;2023-12-29T07:28:31;9.60;99.90
25582;DHT22;13462;50.764;4.332;2023-12-29T07:30:57;9.60;99.90
25582;DHT22;13462;50.764;4.332;2023-12-29T07:33:23;9.60;99.90
25582;DHT22;13462;50.764;4.332;2023-12-29T07:35:50;9.60;99.90
25582;DHT22;13462;50.764;4.332;2023-12-29T07:38:15;9.60;99.90
25582;DHT22;13462;50.764;4.332;2023-12-29T07:40:41;9.60;99.90
25582;DHT22;13462;50.764;4.332;2023-12-29T07:43:07;9.60;99.90
25582;DHT22;13462;50.764;4.332;2023-12-29T07:45:33;9.60;99.90
25582;DHT22;13462;50.764;4.332;2023-12-29T07:47:58;9.60;99.90
25582;DHT22;13462;50.764;4.332;2023-12-29T07:50:24;9.60;99.90
25582;DHT22;13462;50.764;4.332;2023-12-29T07:52:50;9.60;99.90
25582;DHT22;13462;50.764;4.332;2023-12-29T07:55:15;9.60;99.90
25582;DHT22;13462;50.764;4.332;2023-12-29T07:57:44;9.70;99.90
25582;DHT22;13462;50.764;4.332;2023-12-29T08:00:12;9.60;99.90
25582;DHT22;13462;50.764;4.332;2023-12-29T08:02:38;9.60;99.90
25582;DHT22;13462;50.764;4.332;2023-12-29T08:05:04;9.60;99.90
25582;DHT22;13462;50.764;4.332;2023-12-29T08:07:29;9.70;99.90
25582;DHT22;13462;50.764;4.332;2023-12-29T08:09:55;9.70;99.90
25582;DHT22;13462;50.764;4.332;2023-12-29T08:12:21;9.60;99.90
25582;DHT22;13462;50.764;4.332;2023-12-29T08:14:46;9.70;99.90
25582;DHT22;13462;50.764;4.332;2023-12-29T08:17:12;9.70;99.90
25582;DHT22;13462;50.764;4.332;2023-12-29T08:19:38;9.70;99.90
25582;DHT22;13462;50.764;4.332;2023-12-29T08:22:03;9.70;99.90
25582;DHT22;13462;50.764;4.332;2023-12-29T08:24:29;9.80;99.90
25582;DHT22;13462;50.764;4.332;2023-12-29T08:26:54;9.80;99.90
25582;DHT22;13462;50.764;4.332;2023-12-29T08:29:20;9.80;99.90
25582;DHT22;13462;50.764;4.332;2023-12-29T08:31:46;9.90;99.90
25582;DHT22;13462;50.764;4.332;2023-12-29T08:34:12;9.80;99.90
25582;DHT22;13462;50.764;4.332;2023-12-29T08:36:37;9.90;99.90
25582;DHT22;13462;50.764;4.332;2023-12-29T08:39:03;9.80;99.90
25582;DHT22;13462;50.764;4.332;2023-12-29T08:41:29;9.90;99.90
25582;DHT22;13462;50.764;4.332;2023-12-29T08:43:54;9.90;99.90
25582;DHT22;13462;50.764;4.332;2023-12-29T08:46:20;9.90;99.90
25582;DHT22;13462;50.764;4.332;2023-12-29T08:48:46;9.90;99.90
25582;DHT22;13462;50.764;4.332;2023-12-29T08:51:12;10.00;99.90
25582;DHT22;13462;50.764;4.332;2023-12-29T08:53:38;9.90;99.90
25582;DHT22;13462;50.764;4.332;2023-12-29T08:56:03;9.90;99.90
25582;DHT22;13462;50.764;4.332;2023-12-29T08:58:30;9.90;99.90
25582;DHT22;13462;50.764;4.332;2023-12-29T09:00:56;9.90;99.90
25582;DHT22;13462;50.764;4.332;2023-12-29T09:03:22;9.90;99.90
25582;DHT22;13462;50.764;4.332;2023-12-29T09:05:47;10.00;99.90
25582;DHT22;13462;50.764;4.332;2023-12-29T09:08:13;10.00;99.90
25582;DHT22;13462;50.764;4.332;2023-12-29T09:10:39;10.10;99.90
25582;DHT22;13462;50.764;4.332;2023-12-29T09:13:04;10.20;99.90
25582;DHT22;13462;50.764;4.332;2023-12-29T09:15:30;10.20;99.90
25582;DHT22;13462;50.764;4.332;2023-12-29T09:17:56;10.20;99.90
25582;DHT22;13462;50.764;4.332;2023-12-29T09:20:21;10.30;99.90
25582;DHT22;13462;50.764;4.332;2023-12-29T09:22:47;10.30;99.90
25582;DHT22;13462;50.764;4.332;2023-12-29T09:25:28;10.30;99.90
25582;DHT22;13462;50.764;4.332;2023-12-29T09:27:53;10.40;99.90
25582;DHT22;13462;50.764;4.332;2023-12-29T09:30:19;10.40;99.90
25582;DHT22;13462;50.764;4.332;2023-12-29T09:32:45;10.40;99.90
25582;DHT22;13462;50.764;4.332;2023-12-29T09:35:10;10.40;99.90
25582;DHT22;13462;50.764;4.332;2023-12-29T09:37:51;10.40;99.90
25582;DHT22;13462;50.764;4.332;2023-12-29T09:40:17;10.40;99.90
25582;DHT22;13462;50.764;4.332;2023-12-29T09:42:44;10.50;99.90
25582;DHT22;13462;50.764;4.332;2023-12-29T09:45:13;10.50;99.90
25582;DHT22;13462;50.764;4.332;2023-12-29T09:47:41;10.50;99.90
25582;DHT22;13462;50.764;4.332;2023-12-29T09:50:25;10.50;99.90
25582;DHT22;13462;50.764;4.332;2023-12-29T09:52:53;10.40;99.90
25582;DHT22;13462;50.764;4.332;2023-12-29T09:55:19;10.40;99.90
25582;DHT22;13462;50.764;4.332;2023-12-29T09:57:47;10.30;99.90
25582;DHT22;13462;50.764;4.332;2023-12-29T10:00:23;10.40;99.90
25582;DHT22;13462;50.764;4.332;2023-12-29T10:02:51;10.40;99.90
25582;DHT22;13462;50.764;4.332;2023-12-29T10:05:20;10.40;99.90
25582;DHT22;13462;50.764;4.332;2023-12-29T10:07:46;10.40;99.90
25582;DHT22;13462;50.764;4.332;2023-12-29T10:10:33;10.40;99.90
25582;DHT22;13462;50.764;4.332;2023-12-29T10:12:59;10.50;99.90
25582;DHT22;13462;50.764;4.332;2023-12-29T10:15:37;10.60;99.90
25582;DHT22;13462;50.764;4.332;2023-12-29T10:21:02;10.70;99.90
25582;DHT22;13462;50.764;4.332;2023-12-29T10:23:38;10.70;99.90
25582;DHT22;13462;50.764;4.332;2023-12-29T10:26:18;10.70;99.90
25582;DHT22;13462;50.764;4.332;2023-12-29T10:28:47;10.80;99.90
25582;DHT22;13462;50.764;4.332;2023-12-29T10:31:15;10.90;99.90
25582;DHT22;13462;50.764;4.332;2023-12-29T10:33:41;11.00;99.90
25582;DHT22;13462;50.764;4.332;2023-12-29T10:36:07;11.00;99.90
25582;DHT22;13462;50.764;4.332;2023-12-29T10:39:06;11.00;99.90
25582;DHT22;13462;50.764;4.332;2023-12-29T10:41:35;10.80;99.90
25582;DHT22;13462;50.764;4.332;2023-12-29T10:44:19;10.80;99.90
25582;DHT22;13462;50.764;4.332;2023-12-29T10:46:44;10.80;99.90
25582;DHT22;13462;50.764;4.332;2023-12-29T10:49:11;10.80;99.90
25582;DHT22;13462;50.764;4.332;2023-12-29T10:51:38;10.90;99.90
25582;DHT22;13462;50.764;4.332;2023-12-29T10:54:04;10.90;99.90
25582;DHT22;13462;50.764;4.332;2023-12-29T10:56:42;10.90;99.90
25582;DHT22;13462;50.764;4.332;2023-12-29T10:59:07;10.90;99.90
25582;DHT22;13462;50.764;4.332;2023-12-29T11:01:36;11.10;99.90
25582;DHT22;13462;50.764;4.332;2023-12-29T11:04:05;11.20;99.90
25582;DHT22;13462;50.764;4.332;2023-12-29T11:06:50;11.30;99.90
25582;DHT22;13462;50.764;4.332;2023-12-29T11:09:32;11.40;99.90
25582;DHT22;13462;50.764;4.332;2023-12-29T11:12:00;11.30;99.90
25582;DHT22;13462;50.764;4.332;2023-12-29T11:14:44;11.30;99.90
25582;DHT22;13462;50.764;4.332;2023-12-29T11:17:14;11.30;99.90
25582;DHT22;13462;50.764;4.332;2023-12-29T11:19:44;11.20;99.90
25582;DHT22;13462;50.764;4.332;2023-12-29T11:22:11;11.20;99.90
25582;DHT22;13462;50.764;4.332;2023-12-29T11:25:06;11.10;99.90
25582;DHT22;13462;50.764;4.332;2023-12-29T11:27:33;11.20;99.90
25582;DHT22;13462;50.764;4.332;2023-12-29T11:30:00;11.10;99.90
25582;DHT22;13462;50.764;4.332;2023-12-29T11:35:32;11.10;99.90
25582;DHT22;13462;50.764;4.332;2023-12-29T11:41:02;11.00;99.90
25582;DHT22;13462;50.764;4.332;2023-12-29T11:43:30;11.10;99.90
25582;DHT22;13462;50.764;4.332;2023-12-29T11:45:55;11.10;99.90
25582;DHT22;13462;50.764;4.332;2023-12-29T11:51:56;10.90;99.90
25582;DHT22;13462;50.764;4.332;2023-12-29T11:54:23;10.80;99.90
25582;DHT22;13462;50.764;4.332;2023-12-29T11:56:49;10.70;99.90
25582;DHT22;13462;50.764;4.332;2023-12-29T11:59:19;10.60;99.90
25582;DHT22;13462;50.764;4.332;2023-12-29T12:02:03;10.50;99.90
25582;DHT22;13462;50.764;4.332;2023-12-29T12:04:43;10.50;99.90
25582;DHT22;13462;50.764;4.332;2023-12-29T12:07:17;10.40;99.90
25582;DHT22;13462;50.764;4.332;2023-12-29T12:12:49;10.40;99.90
25582;DHT22;13462;50.764;4.332;2023-12-29T12:15:33;10.30;99.90
25582;DHT22;13462;50.764;4.332;2023-12-29T12:20:26;10.30;99.90
25582;DHT22;13462;50.764;4.332;2023-12-29T12:23:00;10.40;99.90
25582;DHT22;13462;50.764;4.332;2023-12-29T12:25:57;10.40;99.90
25582;DHT22;13462;50.764;4.332;2023-12-29T12:28:25;10.40;99.90
25582;DHT22;13462;50.764;4.332;2023-12-29T12:30:51;10.50;99.90
25582;DHT22;13462;50.764;4.332;2023-12-29T12:33:35;10.50;99.90
25582;DHT22;13462;50.764;4.332;2023-12-29T12:36:01;10.50;99.90
25582;DHT22;13462;50.764;4.332;2023-12-29T12:38:26;10.50;99.90
25582;DHT22;13462;50.764;4.332;2023-12-29T12:40:56;10.50;99.90
25582;DHT22;13462;50.764;4.332;2023-12-29T12:43:45;10.50;99.90
25582;DHT22;13462;50.764;4.332;2023-12-29T12:46:10;10.60;99.90
25582;DHT22;13462;50.764;4.332;2023-12-29T12:48:42;10.60;99.90
25582;DHT22;13462;50.764;4.332;2023-12-29T12:51:09;10.60;99.90
25582;DHT22;13462;50.764;4.332;2023-12-29T12:53:51;10.60;99.90
25582;DHT22;13462;50.764;4.332;2023-12-29T12:56:18;10.60;99.90
25582;DHT22;13462;50.764;4.332;2023-12-29T12:58:45;10.60;99.90
25582;DHT22;13462;50.764;4.332;2023-12-29T13:01:11;10.60;99.90
25582;DHT22;13462;50.764;4.332;2023-12-29T13:03:38;10.60;99.90
25582;DHT22;13462;50.764;4.332;2023-12-29T13:06:15;10.60;99.90
25582;DHT22;13462;50.764;4.332;2023-12-29T13:08:42;10.70;99.90
25582;DHT22;13462;50.764;4.332;2023-12-29T13:11:08;10.60;99.90
25582;DHT22;13462;50.764;4.332;2023-12-29T13:13:41;10.70;99.90
25582;DHT22;13462;50.764;4.332;2023-12-29T13:16:30;10.70;99.90
25582;DHT22;13462;50.764;4.332;2023-12-29T13:18:56;10.70;99.90
25582;DHT22;13462;50.764;4.332;2023-12-29T13:21:22;10.70;99.90
25582;DHT22;13462;50.764;4.332;2023-12-29T13:23:48;10.60;99.90
25582;DHT22;13462;50.764;4.332;2023-12-29T13:26:31;10.60;99.90
25582;DHT22;13462;50.764;4.332;2023-12-29T13:28:57;10.70;99.90
25582;DHT22;13462;50.764;4.332;2023-12-29T13:31:22;10.60;99.90
25582;DHT22;13462;50.764;4.332;2023-12-29T13:33:56;10.60;99.90
25582;DHT22;13462;50.764;4.332;2023-12-29T13:36:46;10.60;99.90
25582;DHT22;13462;50.764;4.332;2023-12-29T13:39:42;10.50;99.90
25582;DHT22;13462;50.764;4.332;2023-12-29T13:42:30;10.50;99.90
25582;DHT22;13462;50.764;4.332;2023-12-29T13:44:57;10.50;99.90
25582;DHT22;13462;50.764;4.332;2023-12-29T13:47:25;10.40;99.90
25582;DHT22;13462;50.764;4.332;2023-12-29T13:49:51;10.40;99.90
25582;DHT22;13462;50.764;4.332;2023-12-29T13:52:26;10.50;99.90
25582;DHT22;13462;50.764;4.332;2023-12-29T13:54:52;10.50;99.90
25582;DHT22;13462;50.764;4.332;2023-12-29T13:57:17;10.50;99.90
25582;DHT22;13462;50.764;4.332;2023-12-29T13:59:43;10.50;99.90
25582;DHT22;13462;50.764;4.332;2023-12-29T14:02:33;10.50;99.90
25582;DHT22;13462;50.764;4.332;2023-12-29T14:08:33;10.50;99.90
25582;DHT22;13462;50.764;4.332;2023-12-29T14:11:00;10.40;99.90
25582;DHT22;13462;50.764;4.332;2023-12-29T14:13:26;10.50;99.90
25582;DHT22;13462;50.764;4.332;2023-12-29T14:16:07;10.40;99.90
25582;DHT22;13462;50.764;4.332;2023-12-29T14:20:59;10.40;99.90
25582;DHT22;13462;50.764;4.332;2023-12-29T14:23:25;10.50;99.90
25582;DHT22;13462;50.764;4.332;2023-12-29T14:25:51;10.50;99.90
25582;DHT22;13462;50.764;4.332;2023-12-29T14:28:20;10.40;99.90
25582;DHT22;13462;50.764;4.332;2023-12-29T14:30:47;10.40;99.90
25582;DHT22;13462;50.764;4.332;2023-12-29T14:33:13;10.40;99.90
25582;DHT22;13462;50.764;4.332;2023-12-29T14:35:39;10.40;99.90
25582;DHT22;13462;50.764;4.332;2023-12-29T14:38:05;10.40;99.90
25582;DHT22;13462;50.764;4.332;2023-12-29T14:40:31;10.40;99.90
25582;DHT22;13462;50.764;4.332;2023-12-29T14:43:00;10.50;99.90
25582;DHT22;13462;50.764;4.332;2023-12-29T14:45:25;10.40;99.90
25582;DHT22;13462;50.764;4.332;2023-12-29T14:47:55;10.40;99.90
25582;DHT22;13462;50.764;4.332;2023-12-29T14:50:20;10.40;99.90
25582;DHT22;13462;50.764;4.332;2023-12-29T14:52:46;10.40;99.90
25582;DHT22;13462;50.764;4.332;2023-12-29T14:55:11;10.40;99.90
25582;DHT22;13462;50.764;4.332;2023-12-29T14:57:37;10.50;99.90
25582;DHT22;13462;50.764;4.332;2023-12-29T15:00:03;10.50;99.90
25582;DHT22;13462;50.764;4.332;2023-12-29T15:02:30;10.50;99.90
25582;DHT22;13462;50.764;4.332;2023-12-29T15:04:55;10.50;99.90
25582;DHT22;13462;50.764;4.332;2023-12-29T15:07:21;10.50;99.90
25582;DHT22;13462;50.764;4.332;2023-12-29T15:09:49;10.50;99.90
25582;DHT22;13462;50.764;4.332;2023-12-29T15:12:14;10.50;99.90
25582;DHT22;13462;50.764;4.332;2023-12-29T15:14:40;10.60;99.90
25582;DHT22;13462;50.764;4.332;2023-12-29T15:17:06;10.60;99.90
25582;DHT22;13462;50.764;4.332;2023-12-29T15:19:32;10.60;99.90
25582;DHT22;13462;50.764;4.332;2023-12-29T15:21:58;10.60;99.90
25582;DHT22;13462;50.764;4.332;2023-12-29T15:24:23;10.60;99.90
25582;DHT22;13462;50.764;4.332;2023-12-29T15:26:49;10.50;99.90
25582;DHT22;13462;50.764;4.332;2023-12-29T15:29:15;10.50;99.90
25582;DHT22;13462;50.764;4.332;2023-12-29T15:31:43;10.40;99.90
25582;DHT22;13462;50.764;4.332;2023-12-29T15:34:12;10.40;99.90
25582;DHT22;13462;50.764;4.332;2023-12-29T15:36:38;10.50;99.90
25582;DHT22;13462;50.764;4.332;2023-12-29T15:39:04;10.50;99.90
25582;DHT22;13462;50.764;4.332;2023-12-29T15:41:33;10.50;99.90
25582;DHT22;13462;50.764;4.332;2023-12-29T15:43:59;10.40;99.90
25582;DHT22;13462;50.764;4.332;2023-12-29T15:46:25;10.40;99.90
25582;DHT22;13462;50.764;4.332;2023-12-29T15:48:51;10.40;99.90
25582;DHT22;13462;50.764;4.332;2023-12-29T15:51:16;10.30;99.90
25582;DHT22;13462;50.764;4.332;2023-12-29T15:53:42;10.20;99.90
25582;DHT22;13462;50.764;4.332;2023-12-29T15:56:17;10.30;99.90
25582;DHT22;13462;50.764;4.332;2023-12-29T15:58:44;10.20;99.90
25582;DHT22;13462;50.764;4.332;2023-12-29T16:01:10;10.30;99.90